LCPH/PFO METAR and TAF weather

Enter ICAO airport designator
Station Type Date Time Source
LCPH METAR 2020/01/26 01:00 UTC NOAA

LCPH 260100Z AUTO 03008KT 9999 OVC037 08/04 Q1029


Station Type Date Time Source
LCPH Decoded METAR 2020/01/26 01:00 UTC NOAA

Paphos Airport, Cyprus (LCPH) 34-43N 032-29E 8M
Jan 25, 2020 - 08:00 PM EST / 2020.01.26 0100 UTC
Wind: from the NNE (030 degrees) at 9 MPH (8 KT):0
Visibility: greater than 7 mile(s):0
Sky conditions: overcast
Temperature: 46 F (8 C)
Dew Point: 39 F (4 C)
Relative Humidity: 75%
Pressure (altimeter): 30.39 in. Hg (1029 hPa)
ob: LCPH 260100Z AUTO 03008KT 9999 OVC037 08/04 Q1029
cycle: 1

Station Type Date Time Source
LCPH TAF 2020/01/25 18:31 UTC NOAA

TAF LCPH 251730Z 2518/2618 03007KT CAVOK
BECMG 2608/2611 27011KT
BECMG 2616/2618 02007KT

Example: see airport list